La Blanca, Texas
Current Conditions -  °F | °C
As of 6:55 PM on Wednesday 17 Dec 2014 (Local Time) from KT65 Reporting Station
Broken Clouds Broken Clouds  
Wind Chill: 72°   Ceiling: 2700
Heat Index: 72°   Visibility: 10mi
Dew Point: 65°   Wind: 10mph
Humidity: 78%   Direction: 150°SSE
Pressure: 29.99"   Gusts: NA
Location:  26.29°N, 98.04°W
Report Text: KT65 180055Z AUTO 15009KT 10SM BKN027 BKN046 22/18 A2999 RMK AO2 T02200181
Loading
Personal Weather Stations






























Interactive Weather Map New forecast layout! Learn more

10-Day Weather Forecast

Advertisements
Track Severe Weather on mobile